sensor_id;sensor_type;location;lat;lon;timestamp;P1;durP1;ratioP1;P2;durP2;ratioP2
36501;SDS011;25393;46.108;3.390;2022-09-02T00:01:24;4.55;;;4.25;;
36501;SDS011;25393;46.108;3.390;2022-09-02T00:03:57;8.82;;;5.13;;
36501;SDS011;25393;46.108;3.390;2022-09-02T00:06:30;4.90;;;4.30;;
36501;SDS011;25393;46.108;3.390;2022-09-02T00:08:58;6.10;;;4.13;;
36501;SDS011;25393;46.108;3.390;2022-09-02T00:11:30;6.45;;;4.20;;
36501;SDS011;25393;46.108;3.390;2022-09-02T00:13:59;5.85;;;3.97;;
36501;SDS011;25393;46.108;3.390;2022-09-02T00:16:29;4.72;;;4.07;;
36501;SDS011;25393;46.108;3.390;2022-09-02T00:19:02;7.90;;;4.57;;
36501;SDS011;25393;46.108;3.390;2022-09-02T00:21:30;5.13;;;4.10;;
36501;SDS011;25393;46.108;3.390;2022-09-02T00:24:01;8.40;;;4.63;;
36501;SDS011;25393;46.108;3.390;2022-09-02T00:26:29;7.15;;;4.47;;
36501;SDS011;25393;46.108;3.390;2022-09-02T00:28:56;5.70;;;4.00;;
36501;SDS011;25393;46.108;3.390;2022-09-02T00:31:29;5.88;;;4.85;;
36501;SDS011;25393;46.108;3.390;2022-09-02T00:34:00;6.72;;;3.90;;
36501;SDS011;25393;46.108;3.390;2022-09-02T00:36:26;4.53;;;4.20;;
36501;SDS011;25393;46.108;3.390;2022-09-02T00:38:56;9.48;;;4.40;;
36501;SDS011;25393;46.108;3.390;2022-09-02T00:41:26;6.30;;;4.55;;
36501;SDS011;25393;46.108;3.390;2022-09-02T00:43:56;4.65;;;4.25;;
36501;SDS011;25393;46.108;3.390;2022-09-02T00:46:26;6.50;;;4.47;;
36501;SDS011;25393;46.108;3.390;2022-09-02T00:51:45;4.85;;;4.30;;
36501;SDS011;25393;46.108;3.390;2022-09-02T00:54:17;6.00;;;4.38;;
36501;SDS011;25393;46.108;3.390;2022-09-02T00:56:46;4.78;;;4.32;;
36501;SDS011;25393;46.108;3.390;2022-09-02T01:02:04;6.20;;;2.20;;
36501;SDS011;25393;46.108;3.390;2022-09-02T01:04:32;3.75;;;2.03;;
36501;SDS011;25393;46.108;3.390;2022-09-02T01:07:00;6.18;;;2.72;;
36501;SDS011;25393;46.108;3.390;2022-09-02T01:09:28;5.00;;;2.72;;
36501;SDS011;25393;46.108;3.390;2022-09-02T01:11:59;3.95;;;1.98;;
36501;SDS011;25393;46.108;3.390;2022-09-02T01:14:28;3.30;;;2.17;;
36501;SDS011;25393;46.108;3.390;2022-09-02T01:16:56;4.00;;;2.10;;
36501;SDS011;25393;46.108;3.390;2022-09-02T01:19:26;5.43;;;2.33;;
36501;SDS011;25393;46.108;3.390;2022-09-02T01:21:57;3.05;;;2.13;;
36501;SDS011;25393;46.108;3.390;2022-09-02T01:24:25;3.47;;;2.00;;
36501;SDS011;25393;46.108;3.390;2022-09-02T01:26:57;4.65;;;2.35;;
36501;SDS011;25393;46.108;3.390;2022-09-02T01:29:26;9.20;;;6.47;;
36501;SDS011;25393;46.108;3.390;2022-09-02T01:31:53;11.23;;;10.32;;
36501;SDS011;25393;46.108;3.390;2022-09-02T01:34:20;9.95;;;9.07;;
36501;SDS011;25393;46.108;3.390;2022-09-02T01:36:48;8.02;;;5.70;;
36501;SDS011;25393;46.108;3.390;2022-09-02T01:39:15;9.23;;;5.88;;
36501;SDS011;25393;46.108;3.390;2022-09-02T01:41:41;6.43;;;2.80;;
36501;SDS011;25393;46.108;3.390;2022-09-02T01:44:08;6.10;;;2.55;;
36501;SDS011;25393;46.108;3.390;2022-09-02T01:46:35;3.67;;;2.45;;
36501;SDS011;25393;46.108;3.390;2022-09-02T01:49:03;6.35;;;2.63;;
36501;SDS011;25393;46.108;3.390;2022-09-02T01:51:30;5.15;;;2.10;;
36501;SDS011;25393;46.108;3.390;2022-09-02T01:53:56;3.38;;;2.00;;
36501;SDS011;25393;46.108;3.390;2022-09-02T01:56:23;3.05;;;2.10;;
36501;SDS011;25393;46.108;3.390;2022-09-02T01:58:50;6.88;;;2.30;;
36501;SDS011;25393;46.108;3.390;2022-09-02T02:01:18;5.57;;;2.72;;
36501;SDS011;25393;46.108;3.390;2022-09-02T02:03:44;6.72;;;2.38;;
36501;SDS011;25393;46.108;3.390;2022-09-02T02:06:12;3.70;;;2.83;;
36501;SDS011;25393;46.108;3.390;2022-09-02T02:08:41;3.60;;;2.67;;
36501;SDS011;25393;46.108;3.390;2022-09-02T02:11:09;7.75;;;2.55;;
36501;SDS011;25393;46.108;3.390;2022-09-02T02:13:36;5.45;;;2.45;;
36501;SDS011;25393;46.108;3.390;2022-09-02T02:16:03;6.47;;;3.70;;
36501;SDS011;25393;46.108;3.390;2022-09-02T02:18:29;7.38;;;2.95;;
36501;SDS011;25393;46.108;3.390;2022-09-02T02:20:56;4.88;;;2.83;;
36501;SDS011;25393;46.108;3.390;2022-09-02T02:23:23;3.83;;;2.60;;
36501;SDS011;25393;46.108;3.390;2022-09-02T02:25:49;6.10;;;2.53;;
36501;SDS011;25393;46.108;3.390;2022-09-02T02:28:16;4.70;;;2.83;;
36501;SDS011;25393;46.108;3.390;2022-09-02T02:30:43;4.53;;;2.58;;
36501;SDS011;25393;46.108;3.390;2022-09-02T02:33:10;4.93;;;2.67;;
36501;SDS011;25393;46.108;3.390;2022-09-02T02:35:37;4.18;;;2.67;;
36501;SDS011;25393;46.108;3.390;2022-09-02T02:38:03;3.72;;;2.45;;
36501;SDS011;25393;46.108;3.390;2022-09-02T02:40:36;8.57;;;2.78;;
36501;SDS011;25393;46.108;3.390;2022-09-02T02:43:06;6.82;;;2.72;;
36501;SDS011;25393;46.108;3.390;2022-09-02T02:45:33;5.38;;;2.38;;
36501;SDS011;25393;46.108;3.390;2022-09-02T02:48:01;7.63;;;2.42;;
36501;SDS011;25393;46.108;3.390;2022-09-02T02:50:28;5.22;;;2.80;;
36501;SDS011;25393;46.108;3.390;2022-09-02T02:52:55;5.53;;;2.40;;
36501;SDS011;25393;46.108;3.390;2022-09-02T02:55:22;8.57;;;2.45;;
36501;SDS011;25393;46.108;3.390;2022-09-02T02:57:50;8.07;;;2.65;;
36501;SDS011;25393;46.108;3.390;2022-09-02T03:00:22;5.47;;;3.20;;
36501;SDS011;25393;46.108;3.390;2022-09-02T03:02:55;6.22;;;2.72;;
36501;SDS011;25393;46.108;3.390;2022-09-02T03:05:23;6.03;;;2.85;;
36501;SDS011;25393;46.108;3.390;2022-09-02T03:07:50;6.03;;;3.08;;
36501;SDS011;25393;46.108;3.390;2022-09-02T03:10:17;5.40;;;2.80;;
36501;SDS011;25393;46.108;3.390;2022-09-02T03:12:45;4.45;;;2.83;;
36501;SDS011;25393;46.108;3.390;2022-09-02T03:15:13;4.90;;;3.08;;
36501;SDS011;25393;46.108;3.390;2022-09-02T03:17:43;7.03;;;2.80;;
36501;SDS011;25393;46.108;3.390;2022-09-02T03:20:10;9.18;;;3.08;;
36501;SDS011;25393;46.108;3.390;2022-09-02T03:22:37;5.97;;;3.33;;
36501;SDS011;25393;46.108;3.390;2022-09-02T03:25:05;7.68;;;3.22;;
36501;SDS011;25393;46.108;3.390;2022-09-02T03:27:35;6.88;;;3.17;;
36501;SDS011;25393;46.108;3.390;2022-09-02T03:30:07;5.15;;;3.17;;
36501;SDS011;25393;46.108;3.390;2022-09-02T03:32:36;5.00;;;3.00;;
36501;SDS011;25393;46.108;3.390;2022-09-02T03:35:09;5.65;;;3.53;;
36501;SDS011;25393;46.108;3.390;2022-09-02T03:37:39;5.55;;;3.10;;
36501;SDS011;25393;46.108;3.390;2022-09-02T03:40:06;4.57;;;2.80;;
36501;SDS011;25393;46.108;3.390;2022-09-02T03:42:36;4.15;;;2.78;;
36501;SDS011;25393;46.108;3.390;2022-09-02T03:45:06;6.35;;;3.00;;
36501;SDS011;25393;46.108;3.390;2022-09-02T03:47:35;4.95;;;2.90;;
36501;SDS011;25393;46.108;3.390;2022-09-02T03:50:02;4.43;;;2.60;;
36501;SDS011;25393;46.108;3.390;2022-09-02T03:52:29;6.78;;;2.72;;
36501;SDS011;25393;46.108;3.390;2022-09-02T03:54:56;5.55;;;2.78;;
36501;SDS011;25393;46.108;3.390;2022-09-02T03:57:23;4.90;;;2.65;;
36501;SDS011;25393;46.108;3.390;2022-09-02T03:59:52;4.85;;;3.03;;
36501;SDS011;25393;46.108;3.390;2022-09-02T04:02:19;3.55;;;2.92;;
36501;SDS011;25393;46.108;3.390;2022-09-02T04:04:46;6.28;;;3.25;;
36501;SDS011;25393;46.108;3.390;2022-09-02T04:07:12;6.50;;;3.58;;
36501;SDS011;25393;46.108;3.390;2022-09-02T04:09:39;5.68;;;3.20;;
36501;SDS011;25393;46.108;3.390;2022-09-02T04:12:11;5.47;;;4.32;;
36501;SDS011;25393;46.108;3.390;2022-09-02T04:14:38;6.43;;;4.95;;
36501;SDS011;25393;46.108;3.390;2022-09-02T04:17:05;6.55;;;4.55;;
36501;SDS011;25393;46.108;3.390;2022-09-02T04:19:31;6.60;;;4.63;;
36501;SDS011;25393;46.108;3.390;2022-09-02T04:21:58;7.40;;;4.53;;
36501;SDS011;25393;46.108;3.390;2022-09-02T04:24:24;5.13;;;3.88;;
36501;SDS011;25393;46.108;3.390;2022-09-02T04:26:51;8.55;;;5.07;;
36501;SDS011;25393;46.108;3.390;2022-09-02T04:29:18;4.55;;;2.85;;
36501;SDS011;25393;46.108;3.390;2022-09-02T04:31:44;5.65;;;2.78;;
36501;SDS011;25393;46.108;3.390;2022-09-02T04:34:11;4.40;;;2.60;;
36501;SDS011;25393;46.108;3.390;2022-09-02T04:36:38;6.05;;;3.00;;
36501;SDS011;25393;46.108;3.390;2022-09-02T04:39:05;4.95;;;3.10;;
36501;SDS011;25393;46.108;3.390;2022-09-02T04:41:32;7.25;;;3.33;;
36501;SDS011;25393;46.108;3.390;2022-09-02T04:44:01;7.38;;;2.85;;
36501;SDS011;25393;46.108;3.390;2022-09-02T04:46:28;4.10;;;2.92;;
36501;SDS011;25393;46.108;3.390;2022-09-02T04:49:00;3.85;;;2.88;;
36501;SDS011;25393;46.108;3.390;2022-09-02T04:51:28;2.65;;;2.40;;
36501;SDS011;25393;46.108;3.390;2022-09-02T04:53:55;9.20;;;3.20;;
36501;SDS011;25393;46.108;3.390;2022-09-02T04:56:27;5.80;;;3.00;;
36501;SDS011;25393;46.108;3.390;2022-09-02T04:59:22;6.70;;;3.13;;
36501;SDS011;25393;46.108;3.390;2022-09-02T05:01:49;4.40;;;2.92;;
36501;SDS011;25393;46.108;3.390;2022-09-02T05:04:16;5.75;;;3.03;;
36501;SDS011;25393;46.108;3.390;2022-09-02T05:06:43;6.05;;;3.13;;
36501;SDS011;25393;46.108;3.390;2022-09-02T05:09:10;4.80;;;3.65;;
36501;SDS011;25393;46.108;3.390;2022-09-02T05:11:38;4.25;;;3.33;;
36501;SDS011;25393;46.108;3.390;2022-09-02T05:14:05;7.25;;;3.42;;
36501;SDS011;25393;46.108;3.390;2022-09-02T05:16:35;3.42;;;3.08;;
36501;SDS011;25393;46.108;3.390;2022-09-02T05:19:05;5.68;;;2.78;;
36501;SDS011;25393;46.108;3.390;2022-09-02T05:21:38;10.02;;;3.58;;
36501;SDS011;25393;46.108;3.390;2022-09-02T05:24:08;5.93;;;3.67;;
36501;SDS011;25393;46.108;3.390;2022-09-02T05:26:38;6.53;;;3.45;;
36501;SDS011;25393;46.108;3.390;2022-09-02T05:29:07;8.55;;;3.10;;
36501;SDS011;25393;46.108;3.390;2022-09-02T05:31:35;6.32;;;3.40;;
36501;SDS011;25393;46.108;3.390;2022-09-02T05:34:02;5.38;;;3.38;;
36501;SDS011;25393;46.108;3.390;2022-09-02T05:36:30;7.10;;;3.03;;
36501;SDS011;25393;46.108;3.390;2022-09-02T05:38:58;6.90;;;3.45;;
36501;SDS011;25393;46.108;3.390;2022-09-02T05:41:26;6.32;;;4.05;;
36501;SDS011;25393;46.108;3.390;2022-09-02T05:43:54;4.95;;;3.47;;
36501;SDS011;25393;46.108;3.390;2022-09-02T05:46:27;7.60;;;3.33;;
36501;SDS011;25393;46.108;3.390;2022-09-02T05:48:55;9.38;;;3.67;;
36501;SDS011;25393;46.108;3.390;2022-09-02T05:51:53;6.32;;;3.05;;
36501;SDS011;25393;46.108;3.390;2022-09-02T05:54:33;7.95;;;3.53;;
36501;SDS011;25393;46.108;3.390;2022-09-02T05:57:04;5.80;;;3.35;;
36501;SDS011;25393;46.108;3.390;2022-09-02T05:59:35;7.38;;;4.30;;
36501;SDS011;25393;46.108;3.390;2022-09-02T06:02:04;6.03;;;4.15;;
36501;SDS011;25393;46.108;3.390;2022-09-02T06:04:35;5.95;;;4.22;;
36501;SDS011;25393;46.108;3.390;2022-09-02T06:07:03;5.78;;;3.42;;
36501;SDS011;25393;46.108;3.390;2022-09-02T06:09:30;9.32;;;3.58;;
36501;SDS011;25393;46.108;3.390;2022-09-02T06:11:57;4.53;;;3.22;;
36501;SDS011;25393;46.108;3.390;2022-09-02T06:14:24;6.22;;;3.03;;
36501;SDS011;25393;46.108;3.390;2022-09-02T06:16:52;9.05;;;3.55;;
36501;SDS011;25393;46.108;3.390;2022-09-02T06:19:21;6.53;;;3.38;;
36501;SDS011;25393;46.108;3.390;2022-09-02T06:21:50;8.48;;;3.72;;
36501;SDS011;25393;46.108;3.390;2022-09-02T06:24:18;6.25;;;3.90;;
36501;SDS011;25393;46.108;3.390;2022-09-02T06:26:45;6.38;;;3.58;;
36501;SDS011;25393;46.108;3.390;2022-09-02T06:29:12;5.63;;;3.70;;
36501;SDS011;25393;46.108;3.390;2022-09-02T06:31:40;11.07;;;4.13;;
36501;SDS011;25393;46.108;3.390;2022-09-02T06:34:08;6.15;;;3.90;;
36501;SDS011;25393;46.108;3.390;2022-09-02T06:36:39;5.72;;;3.45;;
36501;SDS011;25393;46.108;3.390;2022-09-02T06:39:09;8.73;;;4.38;;
36501;SDS011;25393;46.108;3.390;2022-09-02T06:41:38;5.60;;;3.53;;
36501;SDS011;25393;46.108;3.390;2022-09-02T06:44:09;12.48;;;3.90;;
36501;SDS011;25393;46.108;3.390;2022-09-02T06:46:45;12.35;;;4.25;;
36501;SDS011;25393;46.108;3.390;2022-09-02T06:49:18;6.82;;;4.03;;
36501;SDS011;25393;46.108;3.390;2022-09-02T06:51:46;6.55;;;4.25;;
36501;SDS011;25393;46.108;3.390;2022-09-02T06:54:16;7.18;;;4.22;;
36501;SDS011;25393;46.108;3.390;2022-09-02T06:56:45;5.03;;;4.13;;
36501;SDS011;25393;46.108;3.390;2022-09-02T06:59:15;8.02;;;3.78;;
36501;SDS011;25393;46.108;3.390;2022-09-02T07:01:43;7.95;;;3.65;;
36501;SDS011;25393;46.108;3.390;2022-09-02T07:04:13;7.15;;;3.00;;
36501;SDS011;25393;46.108;3.390;2022-09-02T07:07:03;9.75;;;3.90;;
36501;SDS011;25393;46.108;3.390;2022-09-02T07:09:31;5.75;;;3.55;;
36501;SDS011;25393;46.108;3.390;2022-09-02T07:11:58;5.50;;;3.42;;
36501;SDS011;25393;46.108;3.390;2022-09-02T07:14:30;5.30;;;3.97;;
36501;SDS011;25393;46.108;3.390;2022-09-02T07:17:01;5.05;;;3.90;;
36501;SDS011;25393;46.108;3.390;2022-09-02T07:19:28;6.75;;;3.30;;
36501;SDS011;25393;46.108;3.390;2022-09-02T07:21:54;8.40;;;4.20;;
36501;SDS011;25393;46.108;3.390;2022-09-02T07:24:21;5.28;;;3.35;;
36501;SDS011;25393;46.108;3.390;2022-09-02T07:26:49;9.98;;;3.70;;
36501;SDS011;25393;46.108;3.390;2022-09-02T07:29:21;5.60;;;3.53;;
36501;SDS011;25393;46.108;3.390;2022-09-02T07:31:55;9.07;;;3.40;;
36501;SDS011;25393;46.108;3.390;2022-09-02T07:34:21;5.90;;;4.07;;
36501;SDS011;25393;46.108;3.390;2022-09-02T07:36:48;5.63;;;3.72;;
36501;SDS011;25393;46.108;3.390;2022-09-02T07:39:15;5.57;;;4.40;;
36501;SDS011;25393;46.108;3.390;2022-09-02T07:41:44;9.82;;;3.90;;
36501;SDS011;25393;46.108;3.390;2022-09-02T07:44:13;6.72;;;5.03;;
36501;SDS011;25393;46.108;3.390;2022-09-02T07:46:43;11.10;;;10.18;;
36501;SDS011;25393;46.108;3.390;2022-09-02T07:49:12;6.63;;;6.03;;
36501;SDS011;25393;46.108;3.390;2022-09-02T07:51:41;8.20;;;3.47;;
36501;SDS011;25393;46.108;3.390;2022-09-02T07:54:11;7.45;;;6.00;;
36501;SDS011;25393;46.108;3.390;2022-09-02T07:56:38;6.07;;;5.57;;
36501;SDS011;25393;46.108;3.390;2022-09-02T07:59:08;14.25;;;6.60;;
36501;SDS011;25393;46.108;3.390;2022-09-02T08:01:38;6.43;;;5.75;;
36501;SDS011;25393;46.108;3.390;2022-09-02T08:04:05;12.77;;;6.15;;
36501;SDS011;25393;46.108;3.390;2022-09-02T08:06:32;10.45;;;6.03;;
36501;SDS011;25393;46.108;3.390;2022-09-02T08:09:01;9.07;;;5.85;;
36501;SDS011;25393;46.108;3.390;2022-09-02T08:11:30;11.27;;;6.63;;
36501;SDS011;25393;46.108;3.390;2022-09-02T08:13:58;7.78;;;6.60;;
36501;SDS011;25393;46.108;3.390;2022-09-02T08:16:25;7.53;;;6.57;;
36501;SDS011;25393;46.108;3.390;2022-09-02T08:18:54;8.48;;;7.65;;
36501;SDS011;25393;46.108;3.390;2022-09-02T08:21:20;12.82;;;7.38;;
36501;SDS011;25393;46.108;3.390;2022-09-02T08:23:47;6.78;;;6.10;;
36501;SDS011;25393;46.108;3.390;2022-09-02T08:26:15;13.60;;;6.72;;
36501;SDS011;25393;46.108;3.390;2022-09-02T08:28:43;7.82;;;6.15;;
36501;SDS011;25393;46.108;3.390;2022-09-02T08:31:09;7.90;;;5.93;;
36501;SDS011;25393;46.108;3.390;2022-09-02T08:33:36;6.95;;;6.28;;
36501;SDS011;25393;46.108;3.390;2022-09-02T08:36:04;6.68;;;6.07;;
36501;SDS011;25393;46.108;3.390;2022-09-02T08:38:33;8.93;;;6.45;;
36501;SDS011;25393;46.108;3.390;2022-09-02T08:41:01;7.15;;;6.45;;
36501;SDS011;25393;46.108;3.390;2022-09-02T08:46:05;11.20;;;5.75;;
36501;SDS011;25393;46.108;3.390;2022-09-02T08:54:20;6.28;;;5.68;;
36501;SDS011;25393;46.108;3.390;2022-09-02T08:56:50;17.15;;;5.90;;
36501;SDS011;25393;46.108;3.390;2022-09-02T08:59:19;6.25;;;5.65;;
36501;SDS011;25393;46.108;3.390;2022-09-02T09:12:33;7.43;;;3.33;;
36501;SDS011;25393;46.108;3.390;2022-09-02T09:15:10;8.13;;;3.88;;
36501;SDS011;25393;46.108;3.390;2022-09-02T09:17:58;6.57;;;3.45;;
36501;SDS011;25393;46.108;3.390;2022-09-02T09:20:29;4.63;;;3.20;;
36501;SDS011;25393;46.108;3.390;2022-09-02T09:22:59;9.48;;;4.47;;
36501;SDS011;25393;46.108;3.390;2022-09-02T09:25:28;9.98;;;3.88;;
36501;SDS011;25393;46.108;3.390;2022-09-02T09:27:56;19.38;;;4.40;;
36501;SDS011;25393;46.108;3.390;2022-09-02T09:30:23;8.88;;;4.18;;
36501;SDS011;25393;46.108;3.390;2022-09-02T09:32:51;12.95;;;4.70;;
36501;SDS011;25393;46.108;3.390;2022-09-02T09:35:22;10.35;;;4.47;;
36501;SDS011;25393;46.108;3.390;2022-09-02T09:37:50;10.23;;;4.68;;
36501;SDS011;25393;46.108;3.390;2022-09-02T09:45:47;13.35;;;11.35;;
36501;SDS011;25393;46.108;3.390;2022-09-02T09:50:42;7.07;;;4.00;;
36501;SDS011;25393;46.108;3.390;2022-09-02T09:53:32;9.68;;;4.15;;
36501;SDS011;25393;46.108;3.390;2022-09-02T10:01:16;8.52;;;5.53;;
36501;SDS011;25393;46.108;3.390;2022-09-02T10:11:52;7.97;;;3.97;;
36501;SDS011;25393;46.108;3.390;2022-09-02T10:14:22;6.47;;;2.67;;
36501;SDS011;25393;46.108;3.390;2022-09-02T10:22:35;7.15;;;5.13;;
36501;SDS011;25393;46.108;3.390;2022-09-02T10:36:36;7.63;;;3.58;;
36501;SDS011;25393;46.108;3.390;2022-09-02T10:42:42;8.82;;;4.30;;
36501;SDS011;25393;46.108;3.390;2022-09-02T10:45:28;6.03;;;3.75;;
36501;SDS011;25393;46.108;3.390;2022-09-02T10:48:01;10.18;;;4.10;;
36501;SDS011;25393;46.108;3.390;2022-09-02T10:50:38;7.15;;;3.90;;
36501;SDS011;25393;46.108;3.390;2022-09-02T10:55:52;13.32;;;9.23;;
36501;SDS011;25393;46.108;3.390;2022-09-02T11:01:07;8.80;;;5.75;;
36501;SDS011;25393;46.108;3.390;2022-09-02T11:03:50;5.88;;;4.70;;
36501;SDS011;25393;46.108;3.390;2022-09-02T11:06:29;10.85;;;4.43;;
36501;SDS011;25393;46.108;3.390;2022-09-02T11:09:37;4.68;;;4.15;;
36501;SDS011;25393;46.108;3.390;2022-09-02T11:17:31;5.70;;;4.50;;
36501;SDS011;25393;46.108;3.390;2022-09-02T11:20:04;5.40;;;4.85;;
36501;SDS011;25393;46.108;3.390;2022-09-02T11:22:44;6.15;;;4.10;;
36501;SDS011;25393;46.108;3.390;2022-09-02T11:34:16;4.20;;;3.90;;
36501;SDS011;25393;46.108;3.390;2022-09-02T11:36:51;4.20;;;3.80;;
36501;SDS011;25393;46.108;3.390;2022-09-02T11:42:31;6.00;;;2.88;;
36501;SDS011;25393;46.108;3.390;2022-09-02T11:53:41;3.22;;;2.95;;
36501;SDS011;25393;46.108;3.390;2022-09-02T11:56:13;3.10;;;2.90;;
36501;SDS011;25393;46.108;3.390;2022-09-02T11:58:47;4.20;;;3.15;;
36501;SDS011;25393;46.108;3.390;2022-09-02T12:07:20;4.82;;;3.38;;
36501;SDS011;25393;46.108;3.390;2022-09-02T12:09:45;5.35;;;3.40;;
36501;SDS011;25393;46.108;3.390;2022-09-02T12:20:07;4.43;;;4.00;;
36501;SDS011;25393;46.108;3.390;2022-09-02T12:22:39;4.05;;;3.75;;
36501;SDS011;25393;46.108;3.390;2022-09-02T12:33:37;4.28;;;3.88;;
36501;SDS011;25393;46.108;3.390;2022-09-02T12:39:51;4.30;;;4.00;;
36501;SDS011;25393;46.108;3.390;2022-09-02T12:47:50;6.43;;;4.07;;
36501;SDS011;25393;46.108;3.390;2022-09-02T12:55:54;5.45;;;4.20;;
36501;SDS011;25393;46.108;3.390;2022-09-02T12:58:23;4.53;;;4.10;;
36501;SDS011;25393;46.108;3.390;2022-09-02T13:00:56;4.35;;;3.95;;
36501;SDS011;25393;46.108;3.390;2022-09-02T13:33:08;5.00;;;4.60;;
36501;SDS011;25393;46.108;3.390;2022-09-02T13:35:37;5.32;;;4.82;;
36501;SDS011;25393;46.108;3.390;2022-09-02T13:38:08;4.78;;;4.40;;
36501;SDS011;25393;46.108;3.390;2022-09-02T13:40:36;4.97;;;4.35;;
36501;SDS011;25393;46.108;3.390;2022-09-02T13:45:41;4.55;;;4.15;;
36501;SDS011;25393;46.108;3.390;2022-09-02T13:48:10;5.25;;;4.53;;
36501;SDS011;25393;46.108;3.390;2022-09-02T13:50:48;7.72;;;5.07;;
36501;SDS011;25393;46.108;3.390;2022-09-02T13:53:22;6.82;;;4.80;;
36501;SDS011;25393;46.108;3.390;2022-09-02T13:56:13;5.30;;;4.80;;
36501;SDS011;25393;46.108;3.390;2022-09-02T14:01:36;5.60;;;5.03;;
36501;SDS011;25393;46.108;3.390;2022-09-02T14:04:06;5.25;;;4.75;;
36501;SDS011;25393;46.108;3.390;2022-09-02T14:06:37;5.22;;;4.70;;
36501;SDS011;25393;46.108;3.390;2022-09-02T14:09:10;5.25;;;4.75;;
36501;SDS011;25393;46.108;3.390;2022-09-02T14:11:44;6.90;;;5.25;;
36501;SDS011;25393;46.108;3.390;2022-09-02T14:14:15;5.85;;;5.32;;
36501;SDS011;25393;46.108;3.390;2022-09-02T14:16:44;6.20;;;5.60;;
36501;SDS011;25393;46.108;3.390;2022-09-02T14:24:25;6.57;;;5.88;;
36501;SDS011;25393;46.108;3.390;2022-09-02T14:26:54;6.95;;;5.93;;
36501;SDS011;25393;46.108;3.390;2022-09-02T14:29:22;8.20;;;5.85;;
36501;SDS011;25393;46.108;3.390;2022-09-02T14:32:10;6.55;;;5.63;;
36501;SDS011;25393;46.108;3.390;2022-09-02T14:34:40;7.03;;;6.25;;
36501;SDS011;25393;46.108;3.390;2022-09-02T14:37:24;8.07;;;5.60;;
36501;SDS011;25393;46.108;3.390;2022-09-02T14:42:47;6.05;;;5.47;;
36501;SDS011;25393;46.108;3.390;2022-09-02T14:45:26;6.13;;;5.47;;
36501;SDS011;25393;46.108;3.390;2022-09-02T14:47:59;7.05;;;5.88;;
36501;SDS011;25393;46.108;3.390;2022-09-02T14:50:29;7.55;;;5.47;;
36501;SDS011;25393;46.108;3.390;2022-09-02T14:53:07;9.43;;;5.68;;
36501;SDS011;25393;46.108;3.390;2022-09-02T14:58:13;9.35;;;5.95;;
36501;SDS011;25393;46.108;3.390;2022-09-02T15:00:43;7.00;;;6.20;;
36501;SDS011;25393;46.108;3.390;2022-09-02T15:03:15;6.30;;;5.70;;
36501;SDS011;25393;46.108;3.390;2022-09-02T15:05:42;9.65;;;6.25;;
36501;SDS011;25393;46.108;3.390;2022-09-02T15:08:10;6.38;;;5.78;;
36501;SDS011;25393;46.108;3.390;2022-09-02T15:10:40;9.10;;;6.10;;
36501;SDS011;25393;46.108;3.390;2022-09-02T15:15:55;7.07;;;6.43;;
36501;SDS011;25393;46.108;3.390;2022-09-02T15:18:22;6.78;;;5.97;;
36501;SDS011;25393;46.108;3.390;2022-09-02T15:20:50;9.27;;;6.50;;
36501;SDS011;25393;46.108;3.390;2022-09-02T15:23:20;6.20;;;5.60;;
36501;SDS011;25393;46.108;3.390;2022-09-02T15:25:47;8.00;;;6.40;;
36501;SDS011;25393;46.108;3.390;2022-09-02T15:28:17;7.88;;;6.15;;
36501;SDS011;25393;46.108;3.390;2022-09-02T15:30:47;7.32;;;6.70;;
36501;SDS011;25393;46.108;3.390;2022-09-02T15:33:19;6.20;;;5.60;;
36501;SDS011;25393;46.108;3.390;2022-09-02T15:35:45;5.78;;;5.07;;
36501;SDS011;25393;46.108;3.390;2022-09-02T15:38:13;5.28;;;4.82;;
36501;SDS011;25393;46.108;3.390;2022-09-02T15:40:40;5.30;;;4.80;;
36501;SDS011;25393;46.108;3.390;2022-09-02T15:43:06;7.82;;;5.35;;
36501;SDS011;25393;46.108;3.390;2022-09-02T15:45:33;4.93;;;4.53;;
36501;SDS011;25393;46.108;3.390;2022-09-02T15:48:00;6.40;;;5.90;;
36501;SDS011;25393;46.108;3.390;2022-09-02T15:50:29;6.15;;;5.55;;
36501;SDS011;25393;46.108;3.390;2022-09-02T15:52:56;4.85;;;4.43;;
36501;SDS011;25393;46.108;3.390;2022-09-02T15:55:23;6.65;;;4.90;;
36501;SDS011;25393;46.108;3.390;2022-09-02T15:57:55;5.55;;;4.93;;
36501;SDS011;25393;46.108;3.390;2022-09-02T16:00:22;6.22;;;5.28;;
36501;SDS011;25393;46.108;3.390;2022-09-02T16:02:54;6.70;;;5.40;;
36501;SDS011;25393;46.108;3.390;2022-09-02T16:05:22;5.40;;;4.97;;
36501;SDS011;25393;46.108;3.390;2022-09-02T16:07:49;5.47;;;4.97;;
36501;SDS011;25393;46.108;3.390;2022-09-02T16:10:17;5.45;;;4.95;;
36501;SDS011;25393;46.108;3.390;2022-09-02T16:12:46;5.60;;;4.80;;
36501;SDS011;25393;46.108;3.390;2022-09-02T16:15:16;5.30;;;4.80;;
36501;SDS011;25393;46.108;3.390;2022-09-02T16:17:45;6.13;;;4.80;;
36501;SDS011;25393;46.108;3.390;2022-09-02T16:20:13;7.03;;;5.07;;
36501;SDS011;25393;46.108;3.390;2022-09-02T16:22:46;9.07;;;4.63;;
36501;SDS011;25393;46.108;3.390;2022-09-02T16:25:15;7.20;;;4.45;;
36501;SDS011;25393;46.108;3.390;2022-09-02T16:27:42;4.43;;;4.05;;
36501;SDS011;25393;46.108;3.390;2022-09-02T16:30:21;4.82;;;4.40;;
36501;SDS011;25393;46.108;3.390;2022-09-02T16:32:49;4.65;;;4.25;;
36501;SDS011;25393;46.108;3.390;2022-09-02T16:35:18;5.00;;;4.60;;
36501;SDS011;25393;46.108;3.390;2022-09-02T16:37:45;4.50;;;4.20;;
36501;SDS011;25393;46.108;3.390;2022-09-02T16:40:12;4.22;;;3.92;;
36501;SDS011;25393;46.108;3.390;2022-09-02T16:42:46;5.32;;;4.40;;
36501;SDS011;25393;46.108;3.390;2022-09-02T16:45:15;5.20;;;4.80;;
36501;SDS011;25393;46.108;3.390;2022-09-02T16:47:45;5.00;;;4.60;;
36501;SDS011;25393;46.108;3.390;2022-09-02T16:50:11;5.47;;;4.30;;
36501;SDS011;25393;46.108;3.390;2022-09-02T16:52:38;5.22;;;4.72;;
36501;SDS011;25393;46.108;3.390;2022-09-02T16:55:06;5.00;;;4.10;;
36501;SDS011;25393;46.108;3.390;2022-09-02T16:57:33;5.95;;;4.50;;
36501;SDS011;25393;46.108;3.390;2022-09-02T17:00:01;5.75;;;3.67;;
36501;SDS011;25393;46.108;3.390;2022-09-02T17:02:28;6.43;;;4.03;;
36501;SDS011;25393;46.108;3.390;2022-09-02T17:04:55;6.38;;;3.95;;
36501;SDS011;25393;46.108;3.390;2022-09-02T17:07:22;5.57;;;4.30;;
36501;SDS011;25393;46.108;3.390;2022-09-02T17:09:48;4.50;;;4.07;;
36501;SDS011;25393;46.108;3.390;2022-09-02T17:12:15;5.43;;;4.03;;
36501;SDS011;25393;46.108;3.390;2022-09-02T17:14:41;4.50;;;4.10;;
36501;SDS011;25393;46.108;3.390;2022-09-02T17:17:09;5.35;;;4.85;;
36501;SDS011;25393;46.108;3.390;2022-09-02T17:19:40;11.95;;;4.80;;
36501;SDS011;25393;46.108;3.390;2022-09-02T17:22:06;6.15;;;5.10;;
36501;SDS011;25393;46.108;3.390;2022-09-02T17:24:33;10.75;;;4.32;;
36501;SDS011;25393;46.108;3.390;2022-09-02T17:27:00;4.78;;;4.38;;
36501;SDS011;25393;46.108;3.390;2022-09-02T17:29:27;9.55;;;4.60;;
36501;SDS011;25393;46.108;3.390;2022-09-02T17:32:17;5.25;;;4.35;;
36501;SDS011;25393;46.108;3.390;2022-09-02T17:34:44;7.05;;;4.00;;
36501;SDS011;25393;46.108;3.390;2022-09-02T17:37:11;7.90;;;4.55;;
36501;SDS011;25393;46.108;3.390;2022-09-02T17:39:38;7.45;;;5.20;;
36501;SDS011;25393;46.108;3.390;2022-09-02T17:42:05;7.13;;;4.30;;
36501;SDS011;25393;46.108;3.390;2022-09-02T17:44:35;6.93;;;4.35;;
36501;SDS011;25393;46.108;3.390;2022-09-02T17:47:09;13.27;;;4.55;;
36501;SDS011;25393;46.108;3.390;2022-09-02T17:49:47;5.05;;;4.55;;
36501;SDS011;25393;46.108;3.390;2022-09-02T17:52:18;9.38;;;4.57;;
36501;SDS011;25393;46.108;3.390;2022-09-02T17:54:48;6.43;;;4.85;;
36501;SDS011;25393;46.108;3.390;2022-09-02T17:57:21;7.43;;;4.10;;
36501;SDS011;25393;46.108;3.390;2022-09-02T18:05:56;4.00;;;3.70;;
36501;SDS011;25393;46.108;3.390;2022-09-02T18:11:00;6.20;;;4.47;;
36501;SDS011;25393;46.108;3.390;2022-09-02T18:13:38;4.93;;;4.32;;